Time;durP1;ratioP1;P1;durP2;ratioP2;P2;SDS_P1;SDS_P2;PMS_P1;PMS_P2;Temp;Humidity;BMP_temperature;BMP_pressure;BME280_temperature;BME280_humidity;BME280_pressure;Samples;Min_cycle;Max_cycle;Signal;HPM_P1;HPM_P2
2021/01/01 00:01:05;;;;;;;11.60;9.27;;;;;;;4.54;90.93;95104.75;5071284;28;20727;-61
2021/01/01 00:03:30;;;;;;;10.60;9.50;;;;;;;4.85;90.30;95100.13;5071657;28;20181;-61
2021/01/01 00:05:55;;;;;;;10.57;9.47;;;;;;;4.88;89.16;95096.28;5071309;28;20175;-60
2021/01/01 00:08:21;;;;;;;10.43;9.30;;;;;;;4.97;88.48;95085.34;5070976;28;20209;-59
2021/01/01 00:10:46;;;;;;;11.30;9.90;;;;;;;5.15;87.69;95087.06;5070785;28;20526;-61
2021/01/01 00:13:12;;;;;;;11.17;9.87;;;;;;;5.07;88.09;95084.81;5070789;28;20177;-63
2021/01/01 00:15:37;;;;;;;12.30;9.50;;;;;;;5.21;87.54;95097.41;5070806;28;20193;-60
2021/01/01 00:18:02;;;;;;;12.27;10.97;;;;;;;5.13;87.25;95089.09;5070755;28;20311;-62
2021/01/01 00:20:28;;;;;;;12.37;9.37;;;;;;;5.20;87.71;95084.59;5070755;28;20202;-63
2021/01/01 00:22:53;;;;;;;10.73;9.63;;;;;;;5.27;86.97;95081.91;5070368;28;20219;-60
2021/01/01 00:25:19;;;;;;;10.80;8.80;;;;;;;5.47;86.01;95087.59;5070854;28;20543;-60
2021/01/01 00:27:44;;;;;;;11.47;10.17;;;;;;;5.59;85.56;95090.97;5052815;28;20539;-63
2021/01/01 00:30:11;;;;;;;12.20;10.90;;;;;;;5.66;85.50;95099.47;5072856;28;20193;-62
2021/01/01 00:32:42;;;;;;;11.53;9.43;;;;;;;5.69;85.14;95102.41;5074156;28;20601;-61
2021/01/01 00:35:08;;;;;;;10.90;9.80;;;;;;;5.56;84.88;95107.06;5074257;28;20762;-55
2021/01/01 00:37:35;;;;;;;11.57;10.37;;;;;;;5.65;84.42;95095.28;5074177;28;20874;-56
2021/01/01 00:40:01;;;;;;;12.47;10.77;;;;;;;5.77;84.57;95090.88;5074460;28;20428;-56
2021/01/01 00:42:27;;;;;;;11.07;9.80;;;;;;;5.53;84.37;95097.88;5073955;28;20421;-60
2021/01/01 00:44:52;;;;;;;10.67;9.23;;;;;;;5.63;84.64;95103.34;5074321;28;20746;-55
2021/01/01 00:47:18;;;;;;;14.60;10.53;;;;;;;5.70;83.82;95098.00;5074017;28;20228;-61
2021/01/01 00:49:43;;;;;;;13.93;10.40;;;;;;;5.65;84.04;95101.28;5073846;28;20197;-61
2021/01/01 00:52:08;;;;;;;10.70;9.60;;;;;;;5.74;83.61;95101.75;5074311;28;20193;-56
2021/01/01 00:54:34;;;;;;;11.57;9.60;;;;;;;5.65;84.16;95101.28;5074248;28;20173;-60
2021/01/01 00:56:59;;;;;;;13.80;11.17;;;;;;;5.76;83.63;95110.16;5073819;28;20177;-55
2021/01/01 00:59:25;;;;;;;11.20;9.50;;;;;;;5.53;84.01;95112.72;5074465;28;20182;-61
2021/01/01 01:01:50;;;;;;;11.93;10.50;;;;;;;5.21;85.10;95118.22;5073996;28;20163;-56
2021/01/01 01:04:16;;;;;;;14.73;11.33;;;;;;;5.36;84.72;95125.63;5073885;28;20182;-61
2021/01/01 01:06:41;;;;;;;11.77;10.53;;;;;;;5.29;85.04;95113.72;5073807;28;20512;-56
2021/01/01 01:09:07;;;;;;;11.97;10.37;;;;;;;5.18;85.95;95117.88;5074599;28;20214;-56
2021/01/01 01:11:32;;;;;;;11.40;10.20;;;;;;;5.10;86.61;95121.59;5073858;28;20208;-60
2021/01/01 01:13:59;;;;;;;10.93;8.63;;;;;;;4.89;87.46;95121.28;5073607;28;20171;-56
2021/01/01 01:16:32;;;;;;;10.70;9.70;;;;;;;4.70;89.26;95125.75;5073480;28;20766;-56
2021/01/01 01:19:00;;;;;;;11.40;9.40;;;;;;;4.35;90.49;95132.56;5073549;28;20780;-61
2021/01/01 01:21:26;;;;;;;11.47;10.10;;;;;;;4.43;90.54;95141.88;5073428;28;20450;-60
2021/01/01 01:23:53;;;;;;;11.07;9.83;;;;;;;4.22;92.05;95142.31;5073559;28;20883;-61
2021/01/01 01:26:19;;;;;;;10.77;9.67;;;;;;;4.31;91.38;95141.03;5073130;28;20424;-62
2021/01/01 01:28:44;;;;;;;11.57;10.03;;;;;;;4.51;91.52;95142.38;5073421;28;20790;-60
2021/01/01 01:31:10;;;;;;;16.43;9.83;;;;;;;4.80;89.77;95146.03;5073716;28;20202;-60
2021/01/01 01:33:36;;;;;;;10.57;9.43;;;;;;;4.74;89.08;95139.91;5073875;28;20177;-55
2021/01/01 01:36:02;;;;;;;12.40;10.10;;;;;;;4.78;89.15;95145.47;5073348;28;20178;-60
2021/01/01 01:38:28;;;;;;;10.80;9.70;;;;;;;4.98;88.66;95143.38;5073199;28;20164;-56
2021/01/01 01:40:53;;;;;;;11.70;10.37;;;;;;;5.14;87.77;95150.56;5073140;28;20805;-55
2021/01/01 01:43:19;;;;;;;12.00;10.67;;;;;;;5.11;87.38;95145.78;5073614;28;20632;-61
2021/01/01 01:45:45;;;;;;;13.93;10.87;;;;;;;5.09;87.99;95146.00;5073003;28;20178;-56
2021/01/01 01:48:15;;;;;;;16.23;10.80;;;;;;;5.16;87.13;95146.72;5072541;28;20916;-61
2021/01/01 01:50:41;;;;;;;11.57;10.37;;;;;;;5.10;87.40;95152.03;5073240;28;20194;-56
2021/01/01 01:53:07;;;;;;;11.77;10.53;;;;;;;5.08;87.65;95157.47;5072980;28;20424;-56
2021/01/01 01:55:33;;;;;;;11.37;10.00;;;;;;;5.14;87.26;95151.38;5073193;28;20425;-56
2021/01/01 01:57:59;;;;;;;11.57;10.37;;;;;;;5.15;86.53;95152.16;5073069;28;20769;-61
2021/01/01 02:02:55;;;;;;;11.67;10.37;;;;;;;5.02;88.07;95160.13;5073457;28;20396;-60
2021/01/01 02:05:21;;;;;;;17.07;12.63;;;;;;;5.11;87.85;95159.59;5073218;28;20420;-60
2021/01/01 02:07:47;;;;;;;11.70;10.50;;;;;;;5.28;87.47;95161.56;5072812;28;20415;-61
2021/01/01 02:10:13;;;;;;;13.40;11.30;;;;;;;4.92;87.11;95158.06;5072929;28;20196;-56
2021/01/01 02:12:39;;;;;;;12.97;11.07;;;;;;;4.81;89.58;95166.63;5073292;28;20812;-56
2021/01/01 02:15:05;;;;;;;16.37;12.00;;;;;;;4.92;88.16;95168.47;5073429;28;20207;-55
2021/01/01 02:17:31;;;;;;;13.13;10.50;;;;;;;4.84;87.96;95167.97;5072716;28;20484;-60
2021/01/01 02:20:04;;;;;;;13.77;11.17;;;;;;;4.76;89.17;95168.28;5072387;28;20589;-60
2021/01/01 02:22:37;;;;;;;12.43;11.13;;;;;;;4.70;89.49;95169.97;5061542;28;20220;-60
2021/01/01 02:25:08;;;;;;;13.60;11.00;;;;;;;4.62;89.84;95174.66;5073463;28;20411;-60
2021/01/01 02:27:34;;;;;;;13.63;11.53;;;;;;;4.65;89.08;95169.03;5072435;28;20412;-60
2021/01/01 02:29:59;;;;;;;17.17;11.93;;;;;;;4.73;89.91;95168.75;5072647;28;20448;-56
2021/01/01 02:32:25;;;;;;;15.10;11.50;;;;;;;4.76;89.39;95176.09;5072970;28;20679;-56
2021/01/01 02:34:50;;;;;;;15.30;12.27;;;;;;;4.96;89.21;95177.41;5073109;28;20228;-56
2021/01/01 02:37:16;;;;;;;14.50;11.90;;;;;;;5.05;87.70;95180.53;5075494;28;20181;-56
2021/01/01 02:39:42;;;;;;;17.50;11.77;;;;;;;5.03;87.66;95183.34;5059047;28;20192;-61
2021/01/01 02:42:08;;;;;;;14.13;11.90;;;;;;;5.02;87.54;95186.16;5076748;28;20174;-60
2021/01/01 02:44:33;;;;;;;16.83;13.97;;;;;;;5.05;88.17;95181.31;5076883;28;20423;-61
2021/01/01 02:47:00;;;;;;;15.73;12.30;;;;;;;5.09;87.52;95190.25;5076373;28;20191;-60
2021/01/01 02:49:25;;;;;;;15.93;13.10;;;;;;;5.24;87.11;95192.47;5076389;28;20201;-56
2021/01/01 02:51:51;;;;;;;16.50;13.77;;;;;;;5.11;88.07;95184.84;5076265;28;20546;-60
2021/01/01 02:54:16;;;;;;;16.50;13.30;;;;;;;4.88;88.41;95195.16;5076791;28;20581;-55
2021/01/01 02:56:41;;;;;;;17.17;12.73;;;;;;;4.86;89.12;95197.16;5076289;28;20656;-61
2021/01/01 02:59:07;;;;;;;15.97;13.67;;;;;;;4.95;89.12;95196.66;5076531;28;20176;-61
2021/01/01 03:01:32;;;;;;;15.07;12.20;;;;;;;5.12;88.31;95189.84;5076558;28;20173;-60
2021/01/01 03:03:57;;;;;;;17.40;13.37;;;;;;;4.97;89.35;95192.03;5075793;28;20204;-54
2021/01/01 03:06:23;;;;;;;14.37;12.60;;;;;;;5.15;88.62;95196.41;5056042;28;20526;-61
2021/01/01 03:08:48;;;;;;;15.37;12.60;;;;;;;5.07;88.88;95192.28;5056416;28;20177;-61
2021/01/01 03:11:13;;;;;;;18.13;13.70;;;;;;;5.05;89.00;95190.94;5058631;28;20205;-56
2021/01/01 03:13:39;;;;;;;17.17;14.40;;;;;;;5.10;89.14;95189.28;5076123;28;20223;-60
2021/01/01 03:16:04;;;;;;;14.83;12.47;;;;;;;5.18;88.24;95195.97;5076348;28;20170;-60
2021/01/01 03:18:31;;;;;;;15.03;13.43;;;;;;;5.14;87.62;95189.63;5075790;28;20680;-61
2021/01/01 03:20:57;;;;;;;15.80;13.73;;;;;;;5.20;88.72;95189.53;5076023;28;20222;-55
2021/01/01 03:23:22;;;;;;;14.90;12.70;;;;;;;5.48;88.38;95191.53;5075716;28;20512;-60
2021/01/01 03:25:47;;;;;;;19.63;14.33;;;;;;;5.63;87.54;95193.72;5075752;28;20323;-61
2021/01/01 03:28:15;;;;;;;19.20;14.30;;;;;;;5.64;86.23;95195.28;5075428;28;20183;-61
2021/01/01 03:30:40;;;;;;;18.13;13.53;;;;;;;5.57;87.02;95205.81;5075513;28;20250;-60
2021/01/01 03:33:06;;;;;;;17.87;14.17;;;;;;;5.57;86.37;95195.41;5075759;28;20939;-61
2021/01/01 03:35:31;;;;;;;17.37;14.87;;;;;;;5.48;86.00;95193.34;5076337;28;20571;-61
2021/01/01 03:37:57;;;;;;;17.83;14.20;;;;;;;5.40;85.77;95196.28;5075556;28;20163;-61
2021/01/01 03:40:22;;;;;;;18.23;13.90;;;;;;;5.44;86.52;95200.00;5075164;28;20192;-56
2021/01/01 03:42:48;;;;;;;17.43;13.83;;;;;;;5.61;86.31;95200.97;5075903;28;20166;-56
2021/01/01 03:45:14;;;;;;;19.07;14.73;;;;;;;5.65;85.21;95199.50;5075565;28;20587;-62
2021/01/01 03:47:40;;;;;;;18.90;13.90;;;;;;;5.68;86.24;95205.06;5074339;28;20652;-56
2021/01/01 03:50:07;;;;;;;17.80;14.70;;;;;;;5.75;84.97;95199.75;5075482;28;20445;-61
2021/01/01 03:52:32;;;;;;;16.87;13.07;;;;;;;5.76;85.65;95199.50;5075542;28;20280;-61
2021/01/01 03:54:57;;;;;;;16.33;13.87;;;;;;;5.85;85.12;95194.81;5075263;28;20429;-56
2021/01/01 03:57:23;;;;;;;15.77;13.20;;;;;;;5.86;85.73;95194.59;5074935;28;20174;-62
2021/01/01 03:59:48;;;;;;;16.80;14.13;;;;;;;5.94;84.80;95196.84;5074907;28;20201;-56
2021/01/01 04:02:13;;;;;;;17.00;14.17;;;;;;;5.99;85.19;95194.38;5075727;28;20196;-56
2021/01/01 04:04:39;;;;;;;14.30;12.13;;;;;;;6.02;84.95;95198.31;5075384;28;20171;-62
2021/01/01 04:07:04;;;;;;;16.70;13.53;;;;;;;5.95;83.75;95193.25;5075025;28;20202;-56
2021/01/01 04:09:29;;;;;;;14.03;12.17;;;;;;;5.98;83.76;95191.97;5075180;28;20192;-56
2021/01/01 04:11:55;;;;;;;16.33;13.47;;;;;;;5.95;84.33;95190.63;5074898;28;20210;-56
2021/01/01 04:14:20;;;;;;;16.20;14.23;;;;;;;5.97;84.67;95199.03;5075268;28;20185;-56
2021/01/01 04:16:46;;;;;;;16.67;13.80;;;;;;;5.97;84.29;95191.19;5074715;28;20171;-56
2021/01/01 04:19:11;;;;;;;15.90;14.20;;;;;;;5.97;84.42;95193.00;5056573;28;20184;-61
2021/01/01 04:21:37;;;;;;;14.10;12.53;;;;;;;5.98;84.09;95190.16;5075050;28;20216;-56
2021/01/01 04:24:02;;;;;;;17.70;13.37;;;;;;;6.05;83.92;95201.28;5075008;28;20166;-61
2021/01/01 04:26:28;;;;;;;17.90;14.10;;;;;;;6.10;83.58;95200.59;5073851;28;20652;-56
2021/01/01 04:28:53;;;;;;;15.40;13.47;;;;;;;6.13;83.60;95206.16;5074655;28;20178;-56
2021/01/01 04:31:18;;;;;;;16.43;14.60;;;;;;;6.18;81.71;95208.06;5074278;28;20228;-55
2021/01/01 04:33:45;;;;;;;19.43;13.80;;;;;;;6.13;81.75;95198.34;5074770;28;20246;-61
2021/01/01 04:36:10;;;;;;;17.83;13.43;;;;;;;6.03;82.99;95208.53;5074878;28;20170;-61
2021/01/01 04:38:36;;;;;;;17.47;14.23;;;;;;;5.98;83.01;95208.41;5074379;28;20400;-61
2021/01/01 04:41:02;;;;;;;15.77;12.70;;;;;;;6.02;83.18;95208.75;5073985;28;20670;-62
2021/01/01 04:43:28;;;;;;;16.77;13.83;;;;;;;6.01;83.67;95199.34;5074616;28;20185;-56
2021/01/01 04:45:54;;;;;;;18.43;13.90;;;;;;;6.09;83.89;95199.00;5074432;28;20412;-60
2021/01/01 04:48:19;;;;;;;15.67;12.97;;;;;;;6.09;82.80;95199.00;5074142;28;20411;-55
2021/01/01 04:50:45;;;;;;;16.13;13.37;;;;;;;6.05;83.06;95203.09;5056474;28;20198;-61
2021/01/01 04:53:15;;;;;;;17.27;13.90;;;;;;;6.03;83.46;95208.53;5074183;28;20199;-56
2021/01/01 04:55:41;;;;;;;15.53;12.90;;;;;;;6.12;83.11;95204.56;5073774;28;20197;-61
2021/01/01 04:58:07;;;;;;;15.90;12.70;;;;;;;6.17;82.97;95209.13;5073826;28;20558;-56
2021/01/01 05:00:32;;;;;;;14.43;12.90;;;;;;;6.25;82.86;95211.38;5074313;28;20210;-56
2021/01/01 05:02:58;;;;;;;16.40;13.40;;;;;;;6.22;83.00;95214.44;5074147;28;20884;-61
2021/01/01 05:05:27;;;;;;;17.67;13.37;;;;;;;6.25;82.90;95209.56;5074148;28;20170;-61
2021/01/01 05:07:53;;;;;;;15.30;12.80;;;;;;;6.28;82.67;95213.53;5073492;28;20175;-55
2021/01/01 05:10:18;;;;;;;18.10;14.87;;;;;;;6.32;83.07;95214.69;5073732;28;20445;-56
2021/01/01 05:12:45;;;;;;;17.10;13.97;;;;;;;6.41;82.03;95213.31;5074050;28;20206;-56
2021/01/01 05:15:11;;;;;;;18.50;15.30;;;;;;;6.42;82.20;95212.28;5074151;28;20206;-55
2021/01/01 05:17:37;;;;;;;19.10;15.63;;;;;;;6.46;81.76;95205.59;5073679;28;20455;-61
2021/01/01 05:20:09;;;;;;;16.20;14.10;;;;;;;6.38;81.94;95211.13;5073817;28;20431;-61
2021/01/01 05:22:35;;;;;;;18.43;14.63;;;;;;;6.34;81.72;95217.81;5073503;28;20417;-61
2021/01/01 05:25:22;;;;;;;17.47;14.33;;;;;;;6.41;81.79;95222.94;5073430;28;20934;-60
2021/01/01 05:27:48;;;;;;;19.17;14.30;;;;;;;6.39;82.42;95230.19;5072338;28;20433;-60
2021/01/01 05:30:17;;;;;;;15.57;13.30;;;;;;;6.44;81.93;95230.31;5073991;28;20424;-56
2021/01/01 05:32:52;;;;;;;17.40;14.03;;;;;;;6.45;82.11;95234.53;5073707;28;20209;-56
2021/01/01 05:35:31;;;;;;;17.33;13.43;;;;;;;6.46;81.75;95239.50;5073811;28;20412;-56
2021/01/01 05:38:14;;;;;;;20.73;14.10;;;;;;;6.43;81.51;95237.34;5071791;28;20785;-61
2021/01/01 05:40:40;;;;;;;19.43;14.80;;;;;;;6.41;80.79;95236.78;5055026;28;20436;-61
2021/01/01 05:43:23;;;;;;;21.63;15.37;;;;;;;6.33;81.63;95239.72;5073584;28;20436;-61
2021/01/01 05:45:49;;;;;;;18.70;14.27;;;;;;;6.34;81.57;95240.53;5073451;28;20644;-56
2021/01/01 05:48:16;;;;;;;18.57;14.43;;;;;;;6.28;81.94;95244.03;5073159;28;20813;-56
2021/01/01 05:50:43;;;;;;;16.03;13.60;;;;;;;6.27;82.24;95248.44;5073021;28;20521;-56
2021/01/01 05:53:10;;;;;;;16.00;12.70;;;;;;;6.17;82.93;95254.25;5073301;28;20593;-55
2021/01/01 05:55:35;;;;;;;15.00;13.20;;;;;;;6.23;82.83;95260.38;5073151;28;20488;-55
2021/01/01 05:58:01;;;;;;;15.10;12.43;;;;;;;6.29;83.01;95256.84;5072984;28;20507;-56
2021/01/01 06:00:29;;;;;;;16.70;14.10;;;;;;;6.23;82.97;95262.97;5073245;28;20197;-60
2021/01/01 06:02:57;;;;;;;16.17;12.53;;;;;;;6.19;81.77;95257.41;5073301;28;20170;-60
2021/01/01 06:05:27;;;;;;;13.30;11.60;;;;;;;6.13;82.51;95260.13;5072652;28;20778;-55
2021/01/01 06:07:53;;;;;;;16.73;11.67;;;;;;;6.20;82.82;95258.19;5072834;28;20906;-60
2021/01/01 06:10:21;;;;;;;12.00;10.07;;;;;;;6.25;82.23;95259.09;5073320;28;20428;-61
2021/01/01 06:12:51;;;;;;;15.97;11.00;;;;;;;6.17;82.51;95264.69;5077079;28;20208;-61
2021/01/01 06:15:22;;;;;;;12.30;9.77;;;;;;;6.08;82.82;95267.81;5077024;28;20894;-55
2021/01/01 06:17:51;;;;;;;11.50;9.20;;;;;;;6.08;82.83;95276.44;5077049;28;20397;-56
2021/01/01 06:20:22;;;;;;;10.03;7.83;;;;;;;5.92;82.96;95277.09;5077046;28;20536;-56
2021/01/01 06:23:29;;;;;;;10.23;8.07;;;;;;;5.99;82.50;95283.00;5077351;28;20909;-61
2021/01/01 06:25:55;;;;;;;9.70;8.30;;;;;;;6.05;81.75;95289.91;5064039;28;20510;-61
2021/01/01 06:28:21;;;;;;;10.70;8.60;;;;;;;6.10;82.28;95295.28;5076759;28;20523;-56
2021/01/01 06:30:46;;;;;;;11.17;9.50;;;;;;;6.05;82.38;95283.94;5076669;28;20547;-60
2021/01/01 06:33:12;;;;;;;10.60;9.27;;;;;;;6.09;82.25;95293.66;5076545;28;20525;-55
2021/01/01 06:35:43;;;;;;;11.97;9.10;;;;;;;6.06;81.19;95291.53;5077129;28;20169;-56
2021/01/01 06:38:09;;;;;;;11.47;8.30;;;;;;;6.02;82.08;95297.38;5076541;28;20181;-61
2021/01/01 06:40:36;;;;;;;11.67;9.07;;;;;;;5.97;81.86;95305.91;5076348;28;20447;-60
2021/01/01 06:43:08;;;;;;;11.03;8.40;;;;;;;5.93;82.89;95303.94;5076897;28;20676;-56
2021/01/01 06:45:45;;;;;;;9.57;8.53;;;;;;;5.90;82.47;95302.59;5076864;28;20440;-61
2021/01/01 06:48:33;;;;;;;9.40;8.03;;;;;;;6.01;82.49;95309.66;5076191;28;20503;-56
2021/01/01 06:50:58;;;;;;;9.30;8.20;;;;;;;6.03;81.37;95304.22;5076362;28;20433;-61
2021/01/01 06:53:30;;;;;;;9.53;8.53;;;;;;;6.05;81.77;95320.44;5076097;28;20423;-56
2021/01/01 06:56:08;;;;;;;9.77;8.07;;;;;;;5.86;82.44;95317.06;5076106;28;20224;-60
2021/01/01 06:58:33;;;;;;;11.17;8.40;;;;;;;5.78;82.00;95319.19;5076333;28;20469;-56
2021/01/01 07:00:59;;;;;;;10.00;8.67;;;;;;;5.73;83.00;95319.81;5076040;28;20830;-61
2021/01/01 07:03:39;;;;;;;12.40;9.40;;;;;;;5.74;82.57;95323.25;5076446;28;20178;-56
2021/01/01 07:06:04;;;;;;;8.53;7.40;;;;;;;5.61;83.55;95321.59;5076623;28;20522;-56
2021/01/01 07:08:41;;;;;;;8.43;7.53;;;;;;;5.55;83.78;95324.28;5076092;28;20415;-61
2021/01/01 07:11:13;;;;;;;10.03;8.17;;;;;;;5.14;84.88;95320.56;5075809;28;20234;-55
2021/01/01 07:13:51;;;;;;;9.47;8.33;;;;;;;5.13;85.17;95326.78;5076629;28;20926;-56
2021/01/01 07:16:19;;;;;;;10.93;9.27;;;;;;;4.98;85.93;95328.94;5075647;28;20858;-62
2021/01/01 07:18:44;;;;;;;16.00;11.60;;;;;;;5.18;86.00;95336.56;5075727;28;20946;-56
2021/01/01 07:21:11;;;;;;;31.63;20.10;;;;;;;5.20;86.14;95342.31;5076123;28;20431;-60
2021/01/01 07:23:37;;;;;;;9.20;8.20;;;;;;;5.18;85.32;95352.19;5075951;28;20173;-60
2021/01/01 07:26:04;;;;;;;10.80;8.53;;;;;;;5.16;85.93;95349.00;5076159;28;20763;-60
2021/01/01 07:28:30;;;;;;;9.20;6.83;;;;;;;5.10;85.92;95350.66;5075137;28;20436;-55
2021/01/01 07:30:56;;;;;;;7.93;6.70;;;;;;;5.09;85.81;95353.47;5075805;28;20436;-56
2021/01/01 07:33:24;;;;;;;22.33;12.70;;;;;;;5.08;85.71;95359.69;5075895;28;20866;-61
2021/01/01 07:35:51;;;;;;;10.57;7.83;;;;;;;5.05;86.11;95357.50;5075702;28;20180;-61
2021/01/01 07:38:18;;;;;;;9.47;7.33;;;;;;;4.98;86.31;95357.56;5075387;28;20420;-61
2021/01/01 07:40:45;;;;;;;9.07;7.97;;;;;;;4.97;86.31;95360.38;5075658;28;20858;-60
2021/01/01 07:43:10;;;;;;;6.80;6.10;;;;;;;4.96;86.27;95358.81;5075379;28;20427;-55
2021/01/01 07:45:35;;;;;;;12.73;7.90;;;;;;;4.88;86.17;95369.47;5075677;28;20415;-60
2021/01/01 07:48:01;;;;;;;37.80;19.30;;;;;;;4.90;85.85;95364.88;5075043;28;20261;-60
2021/01/01 07:50:30;;;;;;;14.47;10.00;;;;;;;4.93;86.26;95362.63;5075661;28;20562;-56
2021/01/01 07:53:03;;;;;;;6.50;5.80;;;;;;;4.89;85.85;95373.69;5075563;28;20711;-59
2021/01/01 07:55:29;;;;;;;14.00;10.90;;;;;;;4.97;86.33;95376.00;5075684;28;20411;-56
2021/01/01 07:58:21;;;;;;;6.70;6.00;;;;;;;4.99;86.07;95374.78;5074694;28;20913;-56
2021/01/01 08:00:47;;;;;;;8.50;6.67;;;;;;;5.02;85.85;95381.34;5074787;28;20503;-56
2021/01/01 08:03:14;;;;;;;7.00;5.63;;;;;;;4.85;86.48;95386.34;5074969;28;20419;-61
2021/01/01 08:05:46;;;;;;;6.03;5.17;;;;;;;4.78;86.79;95385.56;5075509;28;20850;-56
2021/01/01 08:08:12;;;;;;;6.50;5.77;;;;;;;4.85;86.92;95385.53;5074726;28;20757;-59
2021/01/01 08:10:39;;;;;;;8.87;8.07;;;;;;;5.00;86.61;95384.19;5075084;28;20440;-56
2021/01/01 08:13:25;;;;;;;7.70;5.10;;;;;;;4.97;86.26;95387.22;5075196;28;20517;-55
2021/01/01 08:15:52;;;;;;;5.10;4.47;;;;;;;5.11;86.23;95387.88;5075303;28;20947;-56
2021/01/01 08:18:19;;;;;;;8.47;7.67;;;;;;;5.05;85.50;95394.72;5074440;28;20420;-61
2021/01/01 08:20:50;;;;;;;4.90;4.40;;;;;;;5.01;85.27;95390.19;5074383;28;20450;-56
2021/01/01 08:23:20;;;;;;;5.60;5.03;;;;;;;5.09;85.11;95400.31;5074819;28;20412;-61
2021/01/01 08:25:47;;;;;;;6.53;5.20;;;;;;;5.08;84.80;95391.72;5074733;28;20456;-56
2021/01/01 08:28:18;;;;;;;4.80;4.27;;;;;;;5.07;84.22;95405.72;5074330;28;20458;-61
2021/01/01 08:30:45;;;;;;;5.47;4.97;;;;;;;5.15;84.64;95409.84;5074187;28;20447;-56
2021/01/01 08:33:11;;;;;;;5.67;5.03;;;;;;;5.19;85.01;95416.25;5074829;28;20561;-56
2021/01/01 08:35:37;;;;;;;7.37;5.50;;;;;;;5.18;84.14;95419.88;5074486;28;20406;-55
2021/01/01 08:38:18;;;;;;;6.77;5.37;;;;;;;5.31;83.78;95416.34;5074313;28;20411;-61
2021/01/01 08:40:51;;;;;;;4.60;4.10;;;;;;;5.41;83.34;95417.41;5074768;28;20211;-56
2021/01/01 08:43:17;;;;;;;4.63;4.10;;;;;;;5.29;83.02;95419.13;5056658;28;20772;-56
2021/01/01 08:45:43;;;;;;;4.97;4.47;;;;;;;5.41;83.08;95427.03;5074156;28;20510;-61
2021/01/01 08:48:12;;;;;;;6.30;5.00;;;;;;;5.26;83.58;95422.16;5074173;28;20177;-61
2021/01/01 08:50:51;;;;;;;5.03;4.60;;;;;;;5.40;81.64;95421.00;5056425;28;20448;-56
2021/01/01 08:53:18;;;;;;;7.07;4.50;;;;;;;5.51;82.40;95422.91;5056490;28;20533;-62
2021/01/01 08:55:44;;;;;;;5.27;4.13;;;;;;;5.42;83.09;95434.63;5074201;28;20420;-56
2021/01/01 08:58:11;;;;;;;3.90;3.50;;;;;;;5.41;82.05;95440.84;5073768;28;20411;-60
2021/01/01 09:00:41;;;;;;;5.57;5.00;;;;;;;5.48;81.46;95443.38;5055772;28;20601;-56
2021/01/01 09:03:07;;;;;;;4.00;3.50;;;;;;;5.43;82.16;95454.47;5074341;28;20947;-61
2021/01/01 09:05:34;;;;;;;4.87;3.90;;;;;;;5.24;81.63;95439.81;5074209;28;20495;-61
2021/01/01 09:08:15;;;;;;;4.07;3.67;;;;;;;5.30;81.71;95438.97;5073492;28;20454;-56
2021/01/01 09:10:42;;;;;;;4.87;3.93;;;;;;;5.35;81.38;95436.50;5073621;28;20443;-56
2021/01/01 09:13:14;;;;;;;3.83;3.53;;;;;;;5.09;81.96;95437.53;5073596;28;20537;-63
2021/01/01 09:15:39;;;;;;;3.60;3.30;;;;;;;4.81;81.51;95447.63;5073241;28;20439;-56
2021/01/01 09:18:05;;;;;;;4.80;2.97;;;;;;;4.48;83.27;95446.25;5055092;28;20423;-56
2021/01/01 09:20:31;;;;;;;3.10;2.80;;;;;;;4.48;83.89;95441.03;5073709;28;20204;-61
2021/01/01 09:23:03;;;;;;;3.17;2.87;;;;;;;4.64;83.46;95443.94;5073740;28;20408;-62
2021/01/01 09:25:30;;;;;;;4.10;3.80;;;;;;;4.76;83.53;95444.84;5073065;28;20185;-61
2021/01/01 09:27:57;;;;;;;3.73;3.43;;;;;;;5.08;82.33;95446.38;5073153;28;20835;-61
2021/01/01 09:30:28;;;;;;;3.50;3.13;;;;;;;5.09;81.54;95445.34;5073391;28;20451;-62
2021/01/01 09:32:56;;;;;;;2.90;2.70;;;;;;;5.23;80.98;95456.47;5073800;28;20861;-57
2021/01/01 09:35:22;;;;;;;3.90;3.17;;;;;;;5.27;81.23;95460.22;5072677;28;20478;-60
2021/01/01 09:37:52;;;;;;;3.07;2.83;;;;;;;5.49;80.75;95456.19;5073323;28;20930;-61
2021/01/01 09:40:21;;;;;;;4.00;3.60;;;;;;;5.46;79.57;95461.03;5073744;28;20428;-56
2021/01/01 09:42:46;;;;;;;3.80;3.43;;;;;;;5.49;80.33;95465.81;5073482;28;20466;-58
2021/01/01 09:45:13;;;;;;;4.10;3.70;;;;;;;5.53;80.20;95470.38;5073065;28;20413;-57
2021/01/01 09:47:39;;;;;;;3.87;3.57;;;;;;;5.68;79.98;95468.22;5072952;28;20249;-61
2021/01/01 09:50:05;;;;;;;3.07;2.80;;;;;;;5.78;79.10;95467.72;5072941;28;20551;-61
2021/01/01 09:52:31;;;;;;;3.93;3.30;;;;;;;5.90;79.30;95466.00;5072847;28;20704;-61
2021/01/01 09:54:56;;;;;;;3.73;3.33;;;;;;;5.91;78.79;95473.59;5073430;28;20403;-61
2021/01/01 09:57:22;;;;;;;5.53;3.43;;;;;;;5.67;79.18;95469.22;5073053;28;20261;-61
2021/01/01 09:59:47;;;;;;;3.57;3.27;;;;;;;5.79;77.68;95469.28;5072736;28;20198;-61
2021/01/01 10:02:13;;;;;;;5.00;3.90;;;;;;;5.98;78.57;95474.31;5073432;28;20165;-61
2021/01/01 10:04:38;;;;;;;4.87;4.00;;;;;;;6.17;78.12;95475.88;5072479;28;20182;-63
2021/01/01 10:07:03;;;;;;;3.43;3.13;;;;;;;6.03;78.26;95471.84;5067928;28;20185;-63
2021/01/01 10:09:29;;;;;;;3.80;3.50;;;;;;;6.01;78.02;95471.28;5069372;28;20321;-63
2021/01/01 10:11:57;;;;;;;4.40;3.80;;;;;;;6.06;77.94;95473.22;5069577;28;20664;-62
2021/01/01 10:14:22;;;;;;;3.50;3.20;;;;;;;6.22;76.40;95470.81;5069712;28;20182;-61
2021/01/01 10:16:49;;;;;;;2.83;2.63;;;;;;;6.19;74.23;95481.69;5068907;28;21063;-62
2021/01/01 10:19:15;;;;;;;3.97;3.60;;;;;;;6.07;74.76;95477.41;5069249;28;20186;-57
2021/01/01 10:21:40;;;;;;;3.53;3.23;;;;;;;5.97;74.51;95484.97;5069017;28;20848;-58
2021/01/01 10:24:06;;;;;;;3.30;3.00;;;;;;;5.98;73.64;95479.53;5069514;28;20431;-58
2021/01/01 10:26:31;;;;;;;2.73;2.53;;;;;;;6.06;75.49;95470.59;5068981;28;20183;-63
2021/01/01 10:28:57;;;;;;;3.20;2.90;;;;;;;6.02;74.20;95483.28;5068940;28;20193;-62
2021/01/01 10:31:23;;;;;;;3.40;3.10;;;;;;;6.14;75.13;95476.31;5051074;28;20292;-63
2021/01/01 10:33:49;;;;;;;3.30;3.00;;;;;;;5.95;74.84;95472.16;5069452;28;20182;-59
2021/01/01 10:36:15;;;;;;;3.20;2.97;;;;;;;6.03;74.55;95469.22;5069232;28;20526;-57
2021/01/01 10:38:41;;;;;;;3.60;3.30;;;;;;;6.06;75.14;95462.78;5069193;28;20816;-63
2021/01/01 10:41:07;;;;;;;3.30;3.00;;;;;;;6.08;74.14;95464.16;5069100;28;20314;-58
2021/01/01 10:43:32;;;;;;;3.87;3.57;;;;;;;6.27;75.59;95464.13;5069458;28;20840;-62
2021/01/01 10:45:57;;;;;;;3.63;3.33;;;;;;;6.39;74.24;95464.97;5069314;28;20632;-57
2021/01/01 10:48:23;;;;;;;3.80;3.50;;;;;;;6.45;73.67;95466.69;5069023;28;20174;-59
2021/01/01 10:50:48;;;;;;;3.80;3.23;;;;;;;6.15;74.56;95477.91;5067181;28;20206;-62
2021/01/01 10:53:14;;;;;;;3.80;3.10;;;;;;;5.96;73.54;95473.72;5068703;28;20241;-59
2021/01/01 10:55:42;;;;;;;2.63;2.43;;;;;;;6.17;73.95;95460.25;5069428;28;20192;-58
2021/01/01 10:58:08;;;;;;;2.77;2.57;;;;;;;6.39;72.96;95460.56;5071664;28;20182;-58
2021/01/01 11:00:33;;;;;;;4.63;4.13;;;;;;;6.58;73.62;95469.91;5072876;28;20516;-58
2021/01/01 11:02:59;;;;;;;3.00;2.80;;;;;;;6.70;72.66;95462.13;5072637;28;20432;-62
2021/01/01 11:05:24;;;;;;;2.97;2.77;;;;;;;6.84;72.80;95468.72;5070995;28;20240;-58
2021/01/01 11:07:50;;;;;;;3.57;3.00;;;;;;;6.82;72.51;95475.97;5072276;28;20180;-59
2021/01/01 11:10:15;;;;;;;3.83;3.23;;;;;;;6.89;71.54;95471.44;5072774;28;20218;-62
2021/01/01 11:12:41;;;;;;;3.60;3.30;;;;;;;6.97;71.85;95469.31;5070849;28;20895;-62
2021/01/01 12:26:46;;;;;;;3.93;3.57;;;;;;;6.60;71.06;95426.13;5012479;28;20429;-57
2021/01/01 12:29:12;;;;;;;3.60;3.30;;;;;;;6.76;71.18;95417.63;5058902;28;20438;-58
2021/01/01 12:31:40;;;;;;;4.13;3.73;;;;;;;6.96;70.16;95425.13;5071200;28;20251;-57
2021/01/01 12:34:06;;;;;;;10.93;7.37;;;;;;;7.08;69.37;95421.50;5071055;28;20251;-58
2021/01/01 12:36:32;;;;;;;7.30;5.07;;;;;;;6.48;70.00;95429.72;5068605;28;20436;-61
2021/01/01 12:38:57;;;;;;;11.00;7.17;;;;;;;6.33;72.26;95422.31;5070826;28;20432;-60
2021/01/01 12:41:22;;;;;;;35.60;17.23;;;;;;;6.29;71.92;95434.19;5070035;28;20178;-57
2021/01/01 12:43:48;;;;;;;47.20;21.27;;;;;;;6.18;72.52;95433.13;5070827;28;20181;-59
2021/01/01 12:46:14;;;;;;;98.97;41.27;;;;;;;6.41;72.64;95434.25;5070331;28;20200;-60